createdAt,value
2022-08-25T00:01:28.514Z,5.95
2022-08-25T00:04:07.540Z,6.28
2022-08-25T00:06:35.244Z,7.80
2022-08-25T00:09:02.402Z,8.15
2022-08-25T00:11:31.515Z,5.90
2022-08-25T00:14:01.662Z,7.50
2022-08-25T00:16:33.212Z,6.65
2022-08-25T00:19:04.471Z,9.10
2022-08-25T00:21:34.270Z,7.22
2022-08-25T00:24:05.270Z,5.65
2022-08-25T00:26:32.358Z,7.25
2022-08-25T00:29:01.181Z,6.45
2022-08-25T00:31:38.491Z,7.18
2022-08-25T00:34:10.543Z,5.65
2022-08-25T00:36:38.583Z,8.43
2022-08-25T00:39:07.764Z,6.18
2022-08-25T00:44:25.146Z,6.85
2022-08-25T00:47:04.470Z,9.32
2022-08-25T00:50:02.004Z,8.07
2022-08-25T00:52:34.261Z,9.57
2022-08-25T00:55:28.273Z,10.10
2022-08-25T00:58:15.991Z,8.07
2022-08-25T01:06:59.729Z,9.68
2022-08-25T01:10:19.917Z,6.43
2022-08-25T01:13:20.641Z,8.05
2022-08-25T01:15:59.652Z,9.07
2022-08-25T01:18:37.618Z,8.88
2022-08-25T01:21:05.752Z,8.55
2022-08-25T01:23:33.072Z,7.75
2022-08-25T01:26:31.650Z,10.93
2022-08-25T01:29:25.061Z,8.38
2022-08-25T01:31:57.802Z,9.55
2022-08-25T01:34:29.910Z,8.98
2022-08-25T01:36:59.211Z,8.75
2022-08-25T01:39:28.752Z,13.93
2022-08-25T01:42:09.335Z,8.43
2022-08-25T01:44:40.156Z,8.88
2022-08-25T01:47:08.427Z,7.93
2022-08-25T01:49:36.462Z,10.05
2022-08-25T01:52:39.921Z,9.95
2022-08-25T01:55:07.593Z,11.25
2022-08-25T01:57:34.566Z,10.20
2022-08-25T02:00:01.695Z,9.63
2022-08-25T02:02:37.960Z,9.52
2022-08-25T02:05:11.489Z,9.32
2022-08-25T02:07:40.567Z,12.57
2022-08-25T02:10:09.131Z,12.18
2022-08-25T02:12:36.757Z,11.57
2022-08-25T02:15:08.517Z,11.50
2022-08-25T02:17:36.927Z,14.73
2022-08-25T02:20:10.689Z,12.88
2022-08-25T02:22:37.727Z,9.77
2022-08-25T02:25:06.443Z,8.80
2022-08-25T02:27:33.598Z,11.60
2022-08-25T02:30:00.517Z,9.63
2022-08-25T02:32:28.018Z,12.73
2022-08-25T02:34:58.051Z,9.88
2022-08-25T02:37:24.876Z,10.23
2022-08-25T02:39:58.787Z,9.90
2022-08-25T02:42:26.343Z,17.50
2022-08-25T02:45:41.907Z,11.82
2022-08-25T02:48:40.266Z,12.25
2022-08-25T02:51:10.006Z,10.07
2022-08-25T02:53:43.998Z,10.80
2022-08-25T02:56:22.352Z,10.98
2022-08-25T03:01:36.519Z,11.43
2022-08-25T03:04:14.390Z,12.93
2022-08-25T03:06:45.482Z,15.82
2022-08-25T03:09:13.445Z,11.18
2022-08-25T03:11:45.394Z,14.07
2022-08-25T03:14:15.485Z,13.23
2022-08-25T03:16:46.348Z,11.95
2022-08-25T03:19:29.024Z,12.73
2022-08-25T03:21:59.700Z,12.63
2022-08-25T03:24:30.216Z,15.10
2022-08-25T03:27:23.497Z,11.90
2022-08-25T03:29:51.203Z,14.38
2022-08-25T03:32:21.380Z,12.45
2022-08-25T03:34:57.443Z,16.35
2022-08-25T03:37:25.196Z,11.43
2022-08-25T03:39:55.348Z,14.73
2022-08-25T03:42:26.513Z,12.60
2022-08-25T03:44:58.122Z,10.65
2022-08-25T03:47:26.587Z,14.07
2022-08-25T03:49:53.493Z,13.68
2022-08-25T03:52:20.425Z,15.65
2022-08-25T03:54:49.897Z,14.27
2022-08-25T03:57:34.338Z,13.80
2022-08-25T04:00:01.600Z,13.25
2022-08-25T04:02:39.862Z,14.45
2022-08-25T04:05:08.319Z,11.15
2022-08-25T04:07:38.828Z,13.35
2022-08-25T04:10:08.045Z,12.85
2022-08-25T04:12:35.205Z,11.57
2022-08-25T04:15:03.757Z,12.70
2022-08-25T04:17:30.824Z,17.05
2022-08-25T04:19:57.724Z,13.90
2022-08-25T04:22:24.502Z,9.60
2022-08-25T04:24:51.497Z,11.73
2022-08-25T04:27:19.155Z,15.18
2022-08-25T04:29:46.015Z,11.30
2022-08-25T04:32:13.964Z,11.95
2022-08-25T04:34:41.579Z,13.05
2022-08-25T04:37:11.593Z,11.27
2022-08-25T04:39:38.656Z,13.70
2022-08-25T04:42:05.798Z,18.65
2022-08-25T04:44:35.231Z,14.82
2022-08-25T04:47:02.103Z,15.82
2022-08-25T04:49:29.585Z,12.70
2022-08-25T04:51:57.469Z,8.48
2022-08-25T04:54:24.857Z,14.10
2022-08-25T04:56:54.534Z,12.00
2022-08-25T05:01:59.497Z,13.05
2022-08-25T05:04:28.494Z,11.30
2022-08-25T05:06:56.779Z,10.43
2022-08-25T05:09:25.558Z,18.25
2022-08-25T05:11:53.535Z,13.52
2022-08-25T05:14:26.214Z,12.25
2022-08-25T05:16:54.373Z,15.00
2022-08-25T05:19:21.325Z,12.77
2022-08-25T05:21:48.254Z,11.60
2022-08-25T05:24:18.506Z,8.85
2022-08-25T05:26:46.102Z,13.18
2022-08-25T05:29:13.409Z,15.40
2022-08-25T05:31:43.954Z,11.05
2022-08-25T05:34:13.259Z,12.93
2022-08-25T05:36:43.503Z,10.38
2022-08-25T05:39:11.112Z,11.23
2022-08-25T05:41:38.625Z,8.70
2022-08-25T05:44:08.478Z,13.10
2022-08-25T05:46:35.472Z,11.23
2022-08-25T05:49:02.671Z,15.23
2022-08-25T05:51:29.521Z,19.35
2022-08-25T05:53:56.349Z,11.35
2022-08-25T05:56:23.323Z,10.50
2022-08-25T05:58:50.556Z,10.85
2022-08-25T06:01:45.699Z,10.90
2022-08-25T06:04:15.590Z,9.48
2022-08-25T06:06:47.655Z,8.35
2022-08-25T06:09:15.218Z,11.40
2022-08-25T06:11:42.197Z,9.85
2022-08-25T06:14:10.728Z,10.75
2022-08-25T06:16:39.272Z,12.48
2022-08-25T06:19:11.154Z,14.77
2022-08-25T06:21:40.959Z,9.48
2022-08-25T06:24:15.174Z,11.38
2022-08-25T06:26:44.043Z,8.45
2022-08-25T06:29:11.020Z,12.18
2022-08-25T06:31:38.580Z,10.40
2022-08-25T06:34:07.999Z,9.98
2022-08-25T06:36:37.741Z,11.40
2022-08-25T06:39:04.891Z,10.45
2022-08-25T06:41:36.792Z,11.00
2022-08-25T06:44:05.527Z,7.77
2022-08-25T06:46:36.522Z,7.68
2022-08-25T06:49:06.137Z,10.52
2022-08-25T06:51:33.065Z,10.63
2022-08-25T06:54:00.726Z,11.20
2022-08-25T06:56:30.743Z,15.18
2022-08-25T06:58:58.359Z,8.38
2022-08-25T07:01:29.067Z,8.57
2022-08-25T07:04:03.070Z,5.47
2022-08-25T07:06:37.879Z,6.93
2022-08-25T07:09:13.418Z,9.20
2022-08-25T07:11:46.288Z,10.43
2022-08-25T07:14:16.477Z,7.55
2022-08-25T07:16:51.118Z,6.53
2022-08-25T07:19:22.038Z,10.35
2022-08-25T07:21:54.344Z,8.65
2022-08-25T07:24:23.262Z,7.17
2022-08-25T07:26:51.200Z,10.23
2022-08-25T07:29:32.731Z,11.32
2022-08-25T07:32:11.971Z,9.27
2022-08-25T07:35:02.951Z,13.45
2022-08-25T07:37:48.840Z,8.80
2022-08-25T07:40:34.079Z,11.85
2022-08-25T07:43:04.750Z,11.82
2022-08-25T07:45:49.504Z,6.72
2022-08-25T07:48:20.607Z,7.97
2022-08-25T07:50:50.870Z,9.63
2022-08-25T07:53:25.892Z,5.93
2022-08-25T07:55:53.753Z,9.07
2022-08-25T07:58:22.392Z,6.43
2022-08-25T08:00:57.664Z,6.15
2022-08-25T08:03:50.121Z,6.00
2022-08-25T08:06:22.359Z,8.68
2022-08-25T08:08:50.757Z,7.70
2022-08-25T08:11:29.607Z,6.63
2022-08-25T08:13:59.102Z,8.05
2022-08-25T08:16:29.887Z,7.53
2022-08-25T08:19:55.335Z,7.53
2022-08-25T08:22:24.900Z,8.05
2022-08-25T08:25:04.842Z,10.57
2022-08-25T08:27:48.971Z,6.43
2022-08-25T08:30:21.629Z,6.85
2022-08-25T08:33:09.154Z,4.10
2022-08-25T08:35:43.814Z,9.75
2022-08-25T08:38:17.245Z,7.20
2022-08-25T08:41:40.196Z,6.82
2022-08-25T08:44:46.075Z,6.38
2022-08-25T08:47:44.377Z,7.10
2022-08-25T08:50:33.970Z,6.45
2022-08-25T08:53:11.472Z,8.52
2022-08-25T08:56:16.837Z,7.57
2022-08-25T08:58:45.905Z,8.55
2022-08-25T09:04:07.645Z,4.13
2022-08-25T09:06:47.195Z,6.40
2022-08-25T09:09:45.833Z,8.30
2022-08-25T09:12:49.178Z,6.25
2022-08-25T09:19:23.723Z,7.25
2022-08-25T09:22:33.982Z,9.30
2022-08-25T09:25:12.748Z,7.87
2022-08-25T09:28:01.469Z,5.13
2022-08-25T09:33:35.350Z,7.75
2022-08-25T09:36:06.422Z,4.45
2022-08-25T09:38:57.059Z,12.38
2022-08-25T09:41:51.197Z,6.88
2022-08-25T09:44:23.373Z,10.80
2022-08-25T09:47:04.818Z,6.20
2022-08-25T09:50:00.742Z,8.25
2022-08-25T09:52:41.445Z,3.70
2022-08-25T09:55:32.447Z,5.43
2022-08-25T09:58:18.391Z,6.00
2022-08-25T10:01:27.911Z,7.70
2022-08-25T10:04:06.685Z,5.18
2022-08-25T10:06:48.395Z,11.40
2022-08-25T10:09:29.630Z,6.28
2022-08-25T10:12:23.266Z,5.70
2022-08-25T10:14:57.894Z,9.18
2022-08-25T10:17:29.401Z,5.35
2022-08-25T10:32:09.023Z,6.70
2022-08-25T10:34:45.441Z,4.70
2022-08-25T10:37:18.734Z,6.90
2022-08-25T10:40:13.263Z,5.93
2022-08-25T10:43:19.739Z,3.55
2022-08-25T10:46:18.720Z,3.92
2022-08-25T10:49:01.635Z,7.68
2022-08-25T12:30:21.482Z,4.78
2022-08-25T12:33:02.563Z,3.90
2022-08-25T12:35:32.874Z,4.85
2022-08-25T12:38:09.759Z,3.50
2022-08-25T12:40:54.530Z,4.20
2022-08-25T12:43:33.339Z,3.83
2022-08-25T12:46:20.451Z,6.00
2022-08-25T12:49:01.753Z,4.80
2022-08-25T12:51:48.512Z,5.05
2022-08-25T12:54:44.096Z,7.80
2022-08-25T12:57:24.963Z,4.65
2022-08-25T12:59:59.045Z,4.18
2022-08-25T13:03:16.205Z,5.15
2022-08-25T13:06:04.064Z,5.85
2022-08-25T13:08:34.034Z,4.30
2022-08-25T13:11:13.647Z,6.38
2022-08-25T13:14:11.150Z,10.80
2022-08-25T13:16:38.095Z,3.28
2022-08-25T13:19:07.021Z,5.13
2022-08-25T13:21:42.855Z,10.93
2022-08-25T13:24:19.405Z,11.65
2022-08-25T13:26:50.419Z,5.68
2022-08-25T13:29:27.820Z,8.55
2022-08-25T13:32:03.147Z,4.63
2022-08-25T13:34:42.858Z,5.57
2022-08-25T13:37:31.439Z,7.65
2022-08-25T13:40:14.573Z,5.32
2022-08-25T13:42:55.635Z,3.70
2022-08-25T13:45:28.427Z,4.15
2022-08-25T13:48:08.234Z,3.78
2022-08-25T13:50:52.892Z,5.35
2022-08-25T13:53:26.188Z,5.05
2022-08-25T13:55:59.082Z,5.55
2022-08-25T13:58:38.961Z,5.07
2022-08-25T14:01:46.148Z,6.38
2022-08-25T14:04:51.114Z,3.50
2022-08-25T14:07:33.821Z,6.75
2022-08-25T14:10:30.446Z,3.42
2022-08-25T14:13:31.623Z,5.15
2022-08-25T14:16:21.335Z,6.80
2022-08-25T14:19:30.041Z,3.20
2022-08-25T14:34:26.252Z,3.80
2022-08-25T14:37:52.474Z,3.85
2022-08-25T14:40:34.482Z,7.68
2022-08-25T14:43:01.693Z,5.40
2022-08-25T14:45:31.685Z,3.72
2022-08-25T14:48:10.313Z,5.57
2022-08-25T14:50:49.381Z,3.70
2022-08-25T14:53:26.994Z,5.70
2022-08-25T14:55:58.930Z,7.53
2022-08-25T14:58:48.477Z,7.78
2022-08-25T15:01:28.874Z,7.63
2022-08-25T15:04:16.060Z,5.85
2022-08-25T15:06:54.315Z,4.18
2022-08-25T15:09:21.711Z,5.95
2022-08-25T15:11:57.101Z,3.55
2022-08-25T15:14:33.212Z,5.30
2022-08-25T15:17:07.985Z,5.55
2022-08-25T15:19:54.533Z,5.68
2022-08-25T15:22:45.649Z,4.18
2022-08-25T15:26:06.820Z,6.03
2022-08-25T15:28:52.411Z,3.65
2022-08-25T15:31:24.298Z,7.85
2022-08-25T15:33:56.785Z,4.10
2022-08-25T15:36:30.540Z,4.30
2022-08-25T15:38:57.440Z,6.63
2022-08-25T15:41:27.900Z,7.07
2022-08-25T15:44:03.782Z,8.23
2022-08-25T15:46:40.108Z,6.53
2022-08-25T15:49:09.280Z,8.00
2022-08-25T15:51:39.742Z,4.60
2022-08-25T15:54:09.233Z,6.38
2022-08-25T15:56:40.189Z,6.20
2022-08-25T15:59:13.530Z,5.55
2022-08-25T16:01:42.222Z,4.72
2022-08-25T16:04:11.589Z,6.63
2022-08-25T16:11:28.444Z,4.90
2022-08-25T16:18:51.731Z,7.95
2022-08-25T16:21:29.028Z,7.93
2022-08-25T16:24:01.906Z,4.43
2022-08-25T16:26:31.555Z,5.85
2022-08-25T16:29:00.911Z,3.67
2022-08-25T16:31:36.418Z,5.05
2022-08-25T16:34:05.646Z,5.22
2022-08-25T16:36:41.187Z,6.28
2022-08-25T16:39:09.996Z,7.82
2022-08-25T16:41:37.023Z,5.20
2022-08-25T16:44:12.165Z,5.13
2022-08-25T16:46:40.668Z,6.05
2022-08-25T16:49:11.464Z,3.08
2022-08-25T16:51:39.402Z,4.18
2022-08-25T16:54:31.084Z,9.68
2022-08-25T16:57:04.266Z,5.90
2022-08-25T16:59:39.338Z,6.65
2022-08-25T17:02:46.054Z,9.27
2022-08-25T17:05:15.538Z,12.95
2022-08-25T17:07:44.149Z,12.85
2022-08-25T17:10:22.255Z,51.28
2022-08-25T17:13:14.207Z,11.75
2022-08-25T17:16:09.670Z,13.88
2022-08-25T17:19:02.967Z,13.55
2022-08-25T17:21:36.910Z,14.20
2022-08-25T17:24:05.029Z,17.25
2022-08-25T17:26:38.116Z,16.00
2022-08-25T17:29:10.951Z,16.40
2022-08-25T17:31:51.664Z,15.55
2022-08-25T17:34:23.028Z,15.73
2022-08-25T17:36:51.656Z,14.00
2022-08-25T17:39:26.388Z,13.60
2022-08-25T17:41:58.993Z,14.40
2022-08-25T17:44:26.623Z,16.40
2022-08-25T17:47:01.713Z,14.27
2022-08-25T17:49:32.245Z,15.55
2022-08-25T17:51:59.454Z,14.35
2022-08-25T17:54:28.873Z,10.30
2022-08-25T17:56:57.763Z,13.38
2022-08-25T17:59:24.549Z,12.43
2022-08-25T18:01:55.504Z,13.50
2022-08-25T18:04:22.885Z,13.05
2022-08-25T18:06:51.994Z,14.32
2022-08-25T18:09:19.310Z,18.67
2022-08-25T18:11:51.211Z,16.73
2022-08-25T18:14:25.749Z,16.33
2022-08-25T18:17:02.700Z,16.63
2022-08-25T18:19:30.065Z,16.85
2022-08-25T18:21:56.887Z,18.55
2022-08-25T18:24:23.848Z,21.27
2022-08-25T18:26:50.735Z,19.42
2022-08-25T18:29:17.829Z,18.13
2022-08-25T18:31:48.683Z,20.90
2022-08-25T18:34:16.182Z,19.85
2022-08-25T18:36:43.029Z,19.20
2022-08-25T18:39:34.540Z,17.30
2022-08-25T18:42:04.591Z,22.33
2022-08-25T18:44:37.454Z,23.65
2022-08-25T18:47:07.612Z,21.65
2022-08-25T18:49:35.098Z,19.27
2022-08-25T18:52:01.998Z,20.20
2022-08-25T18:54:32.169Z,24.70
2022-08-25T18:57:03.406Z,32.50
2022-08-25T18:59:32.882Z,24.70
2022-08-25T19:02:11.796Z,27.33
2022-08-25T19:04:41.621Z,27.95
2022-08-25T19:07:12.707Z,31.75
2022-08-25T19:09:51.989Z,29.02
2022-08-25T19:12:22.611Z,29.45
2022-08-25T19:14:49.968Z,32.35
2022-08-25T19:17:17.264Z,31.27
2022-08-25T19:19:44.701Z,35.00
2022-08-25T19:22:31.838Z,32.40
2022-08-25T19:24:59.852Z,32.42
2022-08-25T19:27:26.892Z,35.72
2022-08-25T19:29:56.897Z,37.63
2022-08-25T19:32:23.673Z,43.33
2022-08-25T19:34:54.780Z,38.03
2022-08-25T19:37:25.732Z,37.75
2022-08-25T19:39:58.839Z,38.38
2022-08-25T19:42:37.146Z,39.80
2022-08-25T19:45:07.746Z,41.95
2022-08-25T19:47:34.920Z,38.72
2022-08-25T19:50:01.900Z,39.83
2022-08-25T19:52:28.922Z,37.42
2022-08-25T19:54:58.930Z,37.60
2022-08-25T19:57:42.907Z,34.97
2022-08-25T20:00:23.585Z,38.38
2022-08-25T20:02:51.383Z,32.95
2022-08-25T20:05:23.729Z,36.30
2022-08-25T20:07:53.174Z,36.47
2022-08-25T20:10:20.935Z,35.67
2022-08-25T20:12:48.049Z,34.33
2022-08-25T20:15:16.494Z,30.25
2022-08-25T20:17:43.907Z,29.20
2022-08-25T20:20:16.583Z,26.33
2022-08-25T20:22:43.771Z,25.75
2022-08-25T20:25:15.051Z,28.85
2022-08-25T20:27:48.321Z,26.42
2022-08-25T20:30:27.762Z,26.02
2022-08-25T20:32:58.436Z,25.70
2022-08-25T20:35:27.627Z,31.67
2022-08-25T20:37:56.118Z,26.73
2022-08-25T20:40:26.257Z,30.30
2022-08-25T20:42:54.862Z,27.90
2022-08-25T20:45:22.805Z,33.13
2022-08-25T20:47:51.113Z,24.83
2022-08-25T20:50:18.371Z,25.17
2022-08-25T20:52:45.139Z,21.52
2022-08-25T20:55:12.487Z,28.08
2022-08-25T20:57:39.577Z,25.88
2022-08-25T21:00:10.711Z,24.60
2022-08-25T21:02:37.596Z,25.38
2022-08-25T21:05:07.700Z,25.35
2022-08-25T21:07:38.989Z,26.35
2022-08-25T21:10:14.317Z,30.30
2022-08-25T21:12:42.370Z,22.50
2022-08-25T21:15:18.468Z,26.25
2022-08-25T21:17:54.365Z,30.50
2022-08-25T21:20:26.850Z,27.48
2022-08-25T21:22:54.486Z,29.77
2022-08-25T21:25:22.215Z,25.90
2022-08-25T21:27:49.412Z,47.80
2022-08-25T21:30:31.408Z,22.90
2022-08-25T21:33:12.074Z,23.25
2022-08-25T21:35:42.932Z,25.00
2022-08-25T21:38:14.385Z,23.70
2022-08-25T21:40:45.170Z,26.05
2022-08-25T21:43:20.438Z,55.00
2022-08-25T21:45:49.375Z,31.35
2022-08-25T21:48:19.680Z,21.08
2022-08-25T21:50:50.186Z,30.65
2022-08-25T21:53:26.239Z,26.98
2022-08-25T21:56:09.184Z,20.73
2022-08-25T21:58:50.383Z,32.53
2022-08-25T22:01:32.309Z,58.78
2022-08-25T22:04:06.169Z,24.63
2022-08-25T22:06:34.972Z,19.33
2022-08-25T22:09:18.393Z,23.38
2022-08-25T22:11:54.681Z,19.23
2022-08-25T22:21:38.854Z,15.82
2022-08-25T22:24:15.602Z,14.35
2022-08-25T22:26:54.772Z,15.55
2022-08-25T22:32:02.257Z,17.90
2022-08-25T22:34:40.074Z,12.43
2022-08-25T22:37:25.124Z,12.23
2022-08-25T22:39:52.736Z,13.98
2022-08-25T22:42:20.111Z,14.43
2022-08-25T22:48:24.982Z,19.00
2022-08-25T22:51:32.065Z,15.73
2022-08-25T22:54:14.886Z,13.07
2022-08-25T22:56:44.204Z,10.73
2022-08-25T22:59:15.637Z,14.52
2022-08-25T23:01:44.230Z,15.15
2022-08-25T23:04:17.645Z,10.02
2022-08-25T23:07:12.092Z,15.75
2022-08-25T23:09:44.142Z,11.20
2022-08-25T23:12:13.608Z,10.38
2022-08-25T23:14:50.585Z,13.68
2022-08-25T23:17:19.501Z,17.52
2022-08-25T23:19:58.261Z,9.93
2022-08-25T23:22:25.287Z,10.85
2022-08-25T23:24:53.977Z,14.23
2022-08-25T23:27:21.565Z,13.93
2022-08-25T23:29:49.928Z,11.25
2022-08-25T23:32:17.882Z,11.98
2022-08-25T23:34:48.554Z,11.60
2022-08-25T23:37:20.280Z,9.95
2022-08-25T23:39:49.951Z,9.68
2022-08-25T23:42:19.336Z,15.27
2022-08-25T23:44:52.011Z,12.95
2022-08-25T23:47:22.078Z,17.27
2022-08-25T23:49:49.616Z,17.17
2022-08-25T23:52:19.584Z,15.00
2022-08-25T23:54:47.093Z,11.25
2022-08-25T23:57:18.873Z,13.73
2022-08-25T23:59:45.850Z,16.20
